sensor_id;sensor_type;location;lat;lon;timestamp;temperature;humidity
20066;DHT22;10193;48.884;9.182;2023-03-01T00:01:52;2.50;55.70
20066;DHT22;10193;48.884;9.182;2023-03-01T00:04:19;2.40;55.60
20066;DHT22;10193;48.884;9.182;2023-03-01T00:06:45;2.40;55.60
20066;DHT22;10193;48.884;9.182;2023-03-01T00:09:15;2.40;55.60
20066;DHT22;10193;48.884;9.182;2023-03-01T00:11:42;2.40;55.60
20066;DHT22;10193;48.884;9.182;2023-03-01T00:14:08;2.40;55.60
20066;DHT22;10193;48.884;9.182;2023-03-01T00:16:37;2.30;55.60
20066;DHT22;10193;48.884;9.182;2023-03-01T00:19:05;2.30;55.70
20066;DHT22;10193;48.884;9.182;2023-03-01T00:21:32;2.30;55.70
20066;DHT22;10193;48.884;9.182;2023-03-01T00:24:01;2.30;55.70
20066;DHT22;10193;48.884;9.182;2023-03-01T00:26:29;2.30;56.40
20066;DHT22;10193;48.884;9.182;2023-03-01T00:28:56;2.20;55.70
20066;DHT22;10193;48.884;9.182;2023-03-01T00:31:26;2.20;55.70
20066;DHT22;10193;48.884;9.182;2023-03-01T00:33:53;2.20;55.80
20066;DHT22;10193;48.884;9.182;2023-03-01T00:36:22;2.20;55.80
20066;DHT22;10193;48.884;9.182;2023-03-01T00:38:49;2.20;55.80
20066;DHT22;10193;48.884;9.182;2023-03-01T00:41:18;2.10;55.70
20066;DHT22;10193;48.884;9.182;2023-03-01T00:43:47;2.10;55.80
20066;DHT22;10193;48.884;9.182;2023-03-01T00:46:16;2.10;55.70
20066;DHT22;10193;48.884;9.182;2023-03-01T00:48:43;2.10;55.80
20066;DHT22;10193;48.884;9.182;2023-03-01T00:51:12;2.10;55.80
20066;DHT22;10193;48.884;9.182;2023-03-01T00:53:39;2.00;55.80
20066;DHT22;10193;48.884;9.182;2023-03-01T00:56:07;2.00;55.80
20066;DHT22;10193;48.884;9.182;2023-03-01T00:58:35;2.00;55.90
20066;DHT22;10193;48.884;9.182;2023-03-01T01:01:08;2.00;56.00
20066;DHT22;10193;48.884;9.182;2023-03-01T01:03:43;1.90;55.90
20066;DHT22;10193;48.884;9.182;2023-03-01T01:06:14;1.90;56.00
20066;DHT22;10193;48.884;9.182;2023-03-01T01:08:41;1.90;56.00
20066;DHT22;10193;48.884;9.182;2023-03-01T01:11:08;1.90;56.10
20066;DHT22;10193;48.884;9.182;2023-03-01T01:13:35;1.90;56.10
20066;DHT22;10193;48.884;9.182;2023-03-01T01:16:03;1.80;56.10
20066;DHT22;10193;48.884;9.182;2023-03-01T01:18:31;1.80;56.20
20066;DHT22;10193;48.884;9.182;2023-03-01T01:20:58;1.80;56.20
20066;DHT22;10193;48.884;9.182;2023-03-01T01:23:29;1.80;56.30
20066;DHT22;10193;48.884;9.182;2023-03-01T01:25:56;1.80;56.40
20066;DHT22;10193;48.884;9.182;2023-03-01T01:28:22;1.80;56.40
20066;DHT22;10193;48.884;9.182;2023-03-01T01:30:49;1.80;56.40
20066;DHT22;10193;48.884;9.182;2023-03-01T01:33:15;1.80;56.40
20066;DHT22;10193;48.884;9.182;2023-03-01T01:35:45;1.80;56.40
20066;DHT22;10193;48.884;9.182;2023-03-01T01:38:11;1.80;56.50
20066;DHT22;10193;48.884;9.182;2023-03-01T01:40:43;1.80;56.50
20066;DHT22;10193;48.884;9.182;2023-03-01T01:43:16;1.80;56.50
20066;DHT22;10193;48.884;9.182;2023-03-01T01:45:44;1.80;56.50
20066;DHT22;10193;48.884;9.182;2023-03-01T01:48:14;1.80;56.50
20066;DHT22;10193;48.884;9.182;2023-03-01T01:50:43;1.80;56.60
20066;DHT22;10193;48.884;9.182;2023-03-01T01:53:15;1.80;56.60
20066;DHT22;10193;48.884;9.182;2023-03-01T01:55:46;1.80;56.60
20066;DHT22;10193;48.884;9.182;2023-03-01T01:58:16;1.80;56.60
20066;DHT22;10193;48.884;9.182;2023-03-01T02:00:45;1.70;56.50
20066;DHT22;10193;48.884;9.182;2023-03-01T02:03:14;1.70;56.60
20066;DHT22;10193;48.884;9.182;2023-03-01T02:05:47;1.70;56.60
20066;DHT22;10193;48.884;9.182;2023-03-01T02:08:18;1.70;56.70
20066;DHT22;10193;48.884;9.182;2023-03-01T02:10:46;1.70;56.80
20066;DHT22;10193;48.884;9.182;2023-03-01T02:13:15;1.70;56.80
20066;DHT22;10193;48.884;9.182;2023-03-01T02:15:42;1.70;56.80
20066;DHT22;10193;48.884;9.182;2023-03-01T02:18:12;1.80;56.90
20066;DHT22;10193;48.884;9.182;2023-03-01T02:20:58;1.80;57.00
20066;DHT22;10193;48.884;9.182;2023-03-01T02:23:28;1.80;57.10
20066;DHT22;10193;48.884;9.182;2023-03-01T02:25:59;1.80;57.10
20066;DHT22;10193;48.884;9.182;2023-03-01T02:28:32;1.80;57.10
20066;DHT22;10193;48.884;9.182;2023-03-01T02:30:59;1.90;57.20
20066;DHT22;10193;48.884;9.182;2023-03-01T02:33:45;1.90;57.30
20066;DHT22;10193;48.884;9.182;2023-03-01T02:36:17;1.90;57.30
20066;DHT22;10193;48.884;9.182;2023-03-01T02:38:44;1.90;57.30
20066;DHT22;10193;48.884;9.182;2023-03-01T02:41:14;2.00;57.50
20066;DHT22;10193;48.884;9.182;2023-03-01T02:43:43;2.00;57.50
20066;DHT22;10193;48.884;9.182;2023-03-01T02:46:15;2.00;58.10
20066;DHT22;10193;48.884;9.182;2023-03-01T02:48:45;2.10;57.60
20066;DHT22;10193;48.884;9.182;2023-03-01T02:51:37;2.10;57.60
20066;DHT22;10193;48.884;9.182;2023-03-01T02:54:12;2.10;57.50
20066;DHT22;10193;48.884;9.182;2023-03-01T02:56:43;2.20;57.60
20066;DHT22;10193;48.884;9.182;2023-03-01T02:59:15;2.20;57.50
20066;DHT22;10193;48.884;9.182;2023-03-01T03:01:42;2.20;57.50
20066;DHT22;10193;48.884;9.182;2023-03-01T03:04:13;2.30;57.60
20066;DHT22;10193;48.884;9.182;2023-03-01T03:06:42;2.30;57.60
20066;DHT22;10193;48.884;9.182;2023-03-01T03:09:09;2.30;57.50
20066;DHT22;10193;48.884;9.182;2023-03-01T03:11:36;2.40;57.60
20066;DHT22;10193;48.884;9.182;2023-03-01T03:14:05;2.40;57.60
20066;DHT22;10193;48.884;9.182;2023-03-01T03:16:40;2.40;57.50
20066;DHT22;10193;48.884;9.182;2023-03-01T03:19:06;2.40;57.50
20066;DHT22;10193;48.884;9.182;2023-03-01T03:21:33;2.40;57.50
20066;DHT22;10193;48.884;9.182;2023-03-01T03:24:00;2.40;57.50
20066;DHT22;10193;48.884;9.182;2023-03-01T03:26:27;2.50;57.50
20066;DHT22;10193;48.884;9.182;2023-03-01T03:28:54;2.50;57.50
20066;DHT22;10193;48.884;9.182;2023-03-01T03:31:21;2.50;57.50
20066;DHT22;10193;48.884;9.182;2023-03-01T03:33:49;2.50;57.40
20066;DHT22;10193;48.884;9.182;2023-03-01T03:36:17;2.50;57.40
20066;DHT22;10193;48.884;9.182;2023-03-01T03:38:44;2.50;57.50
20066;DHT22;10193;48.884;9.182;2023-03-01T03:41:11;2.50;57.50
20066;DHT22;10193;48.884;9.182;2023-03-01T03:43:40;2.50;57.40
20066;DHT22;10193;48.884;9.182;2023-03-01T03:46:08;2.50;57.40
20066;DHT22;10193;48.884;9.182;2023-03-01T03:48:37;2.60;57.50
20066;DHT22;10193;48.884;9.182;2023-03-01T03:51:05;2.60;57.60
20066;DHT22;10193;48.884;9.182;2023-03-01T03:53:33;2.60;57.50
20066;DHT22;10193;48.884;9.182;2023-03-01T03:56:00;2.60;57.50
20066;DHT22;10193;48.884;9.182;2023-03-01T03:58:26;2.60;57.50
20066;DHT22;10193;48.884;9.182;2023-03-01T04:00:55;2.60;57.60
20066;DHT22;10193;48.884;9.182;2023-03-01T04:03:24;2.60;57.60
20066;DHT22;10193;48.884;9.182;2023-03-01T04:05:51;2.60;57.60
20066;DHT22;10193;48.884;9.182;2023-03-01T04:08:20;2.60;57.60
20066;DHT22;10193;48.884;9.182;2023-03-01T04:10:49;2.60;57.60
20066;DHT22;10193;48.884;9.182;2023-03-01T04:13:19;2.70;57.80
20066;DHT22;10193;48.884;9.182;2023-03-01T04:15:46;2.70;57.80
20066;DHT22;10193;48.884;9.182;2023-03-01T04:18:14;2.70;57.70
20066;DHT22;10193;48.884;9.182;2023-03-01T04:20:42;2.70;57.80
20066;DHT22;10193;48.884;9.182;2023-03-01T04:23:13;2.70;57.70
20066;DHT22;10193;48.884;9.182;2023-03-01T04:25:46;2.70;57.70
20066;DHT22;10193;48.884;9.182;2023-03-01T04:28:14;2.70;57.60
20066;DHT22;10193;48.884;9.182;2023-03-01T04:30:41;2.80;57.80
20066;DHT22;10193;48.884;9.182;2023-03-01T04:33:09;2.80;57.80
20066;DHT22;10193;48.884;9.182;2023-03-01T04:35:36;2.80;57.90
20066;DHT22;10193;48.884;9.182;2023-03-01T04:38:03;2.80;57.80
20066;DHT22;10193;48.884;9.182;2023-03-01T04:40:30;2.80;57.80
20066;DHT22;10193;48.884;9.182;2023-03-01T04:42:58;2.80;57.70
20066;DHT22;10193;48.884;9.182;2023-03-01T04:45:25;2.80;57.70
20066;DHT22;10193;48.884;9.182;2023-03-01T04:47:53;2.80;57.70
20066;DHT22;10193;48.884;9.182;2023-03-01T04:50:20;2.80;57.70
20066;DHT22;10193;48.884;9.182;2023-03-01T04:52:48;2.80;57.70
20066;DHT22;10193;48.884;9.182;2023-03-01T04:55:15;2.80;57.70
20066;DHT22;10193;48.884;9.182;2023-03-01T04:57:42;2.90;57.70
20066;DHT22;10193;48.884;9.182;2023-03-01T05:00:13;2.90;58.30
20066;DHT22;10193;48.884;9.182;2023-03-01T05:02:50;2.90;57.80
20066;DHT22;10193;48.884;9.182;2023-03-01T05:05:20;2.90;57.80
20066;DHT22;10193;48.884;9.182;2023-03-01T05:07:51;2.90;57.80
20066;DHT22;10193;48.884;9.182;2023-03-01T05:10:17;2.90;57.70
20066;DHT22;10193;48.884;9.182;2023-03-01T05:12:44;2.90;57.70
20066;DHT22;10193;48.884;9.182;2023-03-01T05:15:13;2.80;57.70
20066;DHT22;10193;48.884;9.182;2023-03-01T05:17:40;2.80;57.70
20066;DHT22;10193;48.884;9.182;2023-03-01T05:20:08;2.80;57.70
20066;DHT22;10193;48.884;9.182;2023-03-01T05:22:35;2.80;57.70
20066;DHT22;10193;48.884;9.182;2023-03-01T05:25:03;2.80;57.70
20066;DHT22;10193;48.884;9.182;2023-03-01T05:27:30;2.80;57.70
20066;DHT22;10193;48.884;9.182;2023-03-01T05:29:56;2.80;57.70
20066;DHT22;10193;48.884;9.182;2023-03-01T05:32:24;2.80;57.60
20066;DHT22;10193;48.884;9.182;2023-03-01T05:34:51;2.80;57.70
20066;DHT22;10193;48.884;9.182;2023-03-01T05:37:20;2.80;57.70
20066;DHT22;10193;48.884;9.182;2023-03-01T05:39:47;2.80;57.70
20066;DHT22;10193;48.884;9.182;2023-03-01T05:42:15;2.80;57.70
20066;DHT22;10193;48.884;9.182;2023-03-01T05:44:43;2.80;57.80
20066;DHT22;10193;48.884;9.182;2023-03-01T05:47:09;2.80;57.70
20066;DHT22;10193;48.884;9.182;2023-03-01T05:49:37;2.80;57.70
20066;DHT22;10193;48.884;9.182;2023-03-01T05:52:04;2.80;57.70
20066;DHT22;10193;48.884;9.182;2023-03-01T05:54:31;2.70;57.60
20066;DHT22;10193;48.884;9.182;2023-03-01T05:56:58;2.70;57.70
20066;DHT22;10193;48.884;9.182;2023-03-01T05:59:25;2.70;57.70
20066;DHT22;10193;48.884;9.182;2023-03-01T06:01:52;2.70;57.70
20066;DHT22;10193;48.884;9.182;2023-03-01T06:04:18;2.70;57.70
20066;DHT22;10193;48.884;9.182;2023-03-01T06:06:47;2.70;57.80
20066;DHT22;10193;48.884;9.182;2023-03-01T06:09:14;2.70;57.80
20066;DHT22;10193;48.884;9.182;2023-03-01T06:11:41;2.70;57.80
20066;DHT22;10193;48.884;9.182;2023-03-01T06:14:08;2.70;57.80
20066;DHT22;10193;48.884;9.182;2023-03-01T06:16:35;2.60;57.70
20066;DHT22;10193;48.884;9.182;2023-03-01T06:19:02;2.60;57.70
20066;DHT22;10193;48.884;9.182;2023-03-01T06:21:29;2.60;57.70
20066;DHT22;10193;48.884;9.182;2023-03-01T06:23:57;2.60;57.90
20066;DHT22;10193;48.884;9.182;2023-03-01T06:26:23;2.60;57.90
20066;DHT22;10193;48.884;9.182;2023-03-01T06:28:50;2.60;58.00
20066;DHT22;10193;48.884;9.182;2023-03-01T06:31:17;2.60;57.90
20066;DHT22;10193;48.884;9.182;2023-03-01T06:33:43;2.60;57.90
20066;DHT22;10193;48.884;9.182;2023-03-01T06:36:10;2.60;57.80
20066;DHT22;10193;48.884;9.182;2023-03-01T06:38:37;2.60;57.80
20066;DHT22;10193;48.884;9.182;2023-03-01T06:41:07;2.60;57.80
20066;DHT22;10193;48.884;9.182;2023-03-01T06:43:34;2.50;57.60
20066;DHT22;10193;48.884;9.182;2023-03-01T06:46:03;2.50;57.40
20066;DHT22;10193;48.884;9.182;2023-03-01T06:48:30;2.40;57.40
20066;DHT22;10193;48.884;9.182;2023-03-01T06:50:58;2.40;57.70
20066;DHT22;10193;48.884;9.182;2023-03-01T06:53:24;2.30;57.30
20066;DHT22;10193;48.884;9.182;2023-03-01T06:55:54;2.30;57.40
20066;DHT22;10193;48.884;9.182;2023-03-01T06:58:22;2.20;57.50
20066;DHT22;10193;48.884;9.182;2023-03-01T07:00:49;2.20;57.50
20066;DHT22;10193;48.884;9.182;2023-03-01T07:03:15;2.20;57.70
20066;DHT22;10193;48.884;9.182;2023-03-01T07:05:42;2.20;57.70
20066;DHT22;10193;48.884;9.182;2023-03-01T07:08:09;2.20;57.90
20066;DHT22;10193;48.884;9.182;2023-03-01T07:10:36;2.20;57.90
20066;DHT22;10193;48.884;9.182;2023-03-01T07:13:03;2.20;57.90
20066;DHT22;10193;48.884;9.182;2023-03-01T07:15:33;2.20;58.00
20066;DHT22;10193;48.884;9.182;2023-03-01T07:18:00;2.20;58.00
20066;DHT22;10193;48.884;9.182;2023-03-01T07:20:26;2.20;58.10
20066;DHT22;10193;48.884;9.182;2023-03-01T07:22:54;2.20;58.10
20066;DHT22;10193;48.884;9.182;2023-03-01T07:25:21;2.30;58.20
20066;DHT22;10193;48.884;9.182;2023-03-01T07:27:52;2.30;58.20
20066;DHT22;10193;48.884;9.182;2023-03-01T07:30:19;2.30;58.10
20066;DHT22;10193;48.884;9.182;2023-03-01T07:32:47;2.40;58.20
20066;DHT22;10193;48.884;9.182;2023-03-01T07:35:14;2.40;58.10
20066;DHT22;10193;48.884;9.182;2023-03-01T07:37:41;2.40;58.10
20066;DHT22;10193;48.884;9.182;2023-03-01T07:40:09;2.40;58.00
20066;DHT22;10193;48.884;9.182;2023-03-01T07:42:36;2.40;58.00
20066;DHT22;10193;48.884;9.182;2023-03-01T07:45:03;2.50;58.00
20066;DHT22;10193;48.884;9.182;2023-03-01T07:47:30;2.50;58.60
20066;DHT22;10193;48.884;9.182;2023-03-01T07:49:58;2.50;58.10
20066;DHT22;10193;48.884;9.182;2023-03-01T07:52:26;2.50;58.10
20066;DHT22;10193;48.884;9.182;2023-03-01T07:54:53;2.60;58.20
20066;DHT22;10193;48.884;9.182;2023-03-01T07:57:19;2.60;58.20
20066;DHT22;10193;48.884;9.182;2023-03-01T07:59:46;2.60;58.20
20066;DHT22;10193;48.884;9.182;2023-03-01T08:02:13;2.60;58.10
20066;DHT22;10193;48.884;9.182;2023-03-01T08:04:40;2.70;58.20
20066;DHT22;10193;48.884;9.182;2023-03-01T08:07:08;2.70;58.20
20066;DHT22;10193;48.884;9.182;2023-03-01T08:09:35;2.70;58.20
20066;DHT22;10193;48.884;9.182;2023-03-01T08:12:03;2.80;58.20
20066;DHT22;10193;48.884;9.182;2023-03-01T08:14:30;2.80;58.20
20066;DHT22;10193;48.884;9.182;2023-03-01T08:16:56;2.80;58.20
20066;DHT22;10193;48.884;9.182;2023-03-01T08:19:23;2.90;58.30
20066;DHT22;10193;48.884;9.182;2023-03-01T08:21:50;2.90;58.20
20066;DHT22;10193;48.884;9.182;2023-03-01T08:24:18;2.90;58.30
20066;DHT22;10193;48.884;9.182;2023-03-01T08:26:45;3.00;58.20
20066;DHT22;10193;48.884;9.182;2023-03-01T08:29:11;3.00;58.80
20066;DHT22;10193;48.884;9.182;2023-03-01T08:31:39;3.10;58.30
20066;DHT22;10193;48.884;9.182;2023-03-01T08:34:08;3.10;58.20
20066;DHT22;10193;48.884;9.182;2023-03-01T08:36:38;3.10;58.30
20066;DHT22;10193;48.884;9.182;2023-03-01T08:39:05;3.20;58.40
20066;DHT22;10193;48.884;9.182;2023-03-01T08:41:34;3.20;58.30
20066;DHT22;10193;48.884;9.182;2023-03-01T08:44:00;3.30;58.30
20066;DHT22;10193;48.884;9.182;2023-03-01T08:46:28;3.30;58.20
20066;DHT22;10193;48.884;9.182;2023-03-01T08:48:55;3.40;58.40
20066;DHT22;10193;48.884;9.182;2023-03-01T08:51:22;3.50;58.30
20066;DHT22;10193;48.884;9.182;2023-03-01T08:53:50;3.50;58.30
20066;DHT22;10193;48.884;9.182;2023-03-01T08:56:18;3.60;58.30
20066;DHT22;10193;48.884;9.182;2023-03-01T08:58:47;3.60;58.20
20066;DHT22;10193;48.884;9.182;2023-03-01T09:01:16;3.60;58.10
20066;DHT22;10193;48.884;9.182;2023-03-01T09:03:43;3.70;58.20
20066;DHT22;10193;48.884;9.182;2023-03-01T09:06:10;3.70;58.10
20066;DHT22;10193;48.884;9.182;2023-03-01T09:08:39;3.70;58.00
20066;DHT22;10193;48.884;9.182;2023-03-01T09:11:08;3.80;58.20
20066;DHT22;10193;48.884;9.182;2023-03-01T09:13:36;3.80;58.20
20066;DHT22;10193;48.884;9.182;2023-03-01T09:16:06;3.90;58.40
20066;DHT22;10193;48.884;9.182;2023-03-01T09:18:34;3.90;58.20
20066;DHT22;10193;48.884;9.182;2023-03-01T09:21:02;3.90;58.20
20066;DHT22;10193;48.884;9.182;2023-03-01T09:23:33;4.00;58.20
20066;DHT22;10193;48.884;9.182;2023-03-01T09:25:59;4.00;58.20
20066;DHT22;10193;48.884;9.182;2023-03-01T09:28:26;4.10;57.80
20066;DHT22;10193;48.884;9.182;2023-03-01T09:30:53;4.10;57.90
20066;DHT22;10193;48.884;9.182;2023-03-01T09:33:21;4.10;57.90
20066;DHT22;10193;48.884;9.182;2023-03-01T09:35:47;4.20;57.90
20066;DHT22;10193;48.884;9.182;2023-03-01T09:38:14;4.20;57.70
20066;DHT22;10193;48.884;9.182;2023-03-01T09:40:42;4.20;57.80
20066;DHT22;10193;48.884;9.182;2023-03-01T09:43:18;4.20;57.70
20066;DHT22;10193;48.884;9.182;2023-03-01T09:45:49;4.30;57.80
20066;DHT22;10193;48.884;9.182;2023-03-01T09:48:18;4.30;58.50
20066;DHT22;10193;48.884;9.182;2023-03-01T09:50:49;4.30;57.90
20066;DHT22;10193;48.884;9.182;2023-03-01T09:53:18;4.40;57.70
20066;DHT22;10193;48.884;9.182;2023-03-01T09:55:49;4.40;57.90
20066;DHT22;10193;48.884;9.182;2023-03-01T09:58:31;4.50;58.00
20066;DHT22;10193;48.884;9.182;2023-03-01T10:01:10;4.50;57.70
20066;DHT22;10193;48.884;9.182;2023-03-01T10:03:42;4.60;57.80
20066;DHT22;10193;48.884;9.182;2023-03-01T10:06:14;4.60;57.80
20066;DHT22;10193;48.884;9.182;2023-03-01T10:08:46;4.70;57.90
20066;DHT22;10193;48.884;9.182;2023-03-01T10:11:20;4.80;58.10
20066;DHT22;10193;48.884;9.182;2023-03-01T10:13:52;4.90;58.00
20066;DHT22;10193;48.884;9.182;2023-03-01T10:16:22;4.90;58.00
20066;DHT22;10193;48.884;9.182;2023-03-01T10:18:55;5.00;58.00
20066;DHT22;10193;48.884;9.182;2023-03-01T10:21:27;5.10;58.00
20066;DHT22;10193;48.884;9.182;2023-03-01T10:23:55;5.20;58.10
20066;DHT22;10193;48.884;9.182;2023-03-01T10:26:39;5.30;58.10
20066;DHT22;10193;48.884;9.182;2023-03-01T10:29:11;5.30;57.70
20066;DHT22;10193;48.884;9.182;2023-03-01T10:31:41;5.40;57.90
20066;DHT22;10193;48.884;9.182;2023-03-01T10:34:14;5.40;58.50
20066;DHT22;10193;48.884;9.182;2023-03-01T10:36:45;5.60;57.90
20066;DHT22;10193;48.884;9.182;2023-03-01T10:39:15;5.60;57.70
20066;DHT22;10193;48.884;9.182;2023-03-01T10:41:55;5.70;57.60
20066;DHT22;10193;48.884;9.182;2023-03-01T10:44:40;5.70;57.50
20066;DHT22;10193;48.884;9.182;2023-03-01T10:47:14;5.80;57.50
20066;DHT22;10193;48.884;9.182;2023-03-01T10:49:55;5.90;57.50
20066;DHT22;10193;48.884;9.182;2023-03-01T10:52:27;5.90;57.40
20066;DHT22;10193;48.884;9.182;2023-03-01T10:54:56;6.00;57.40
20066;DHT22;10193;48.884;9.182;2023-03-01T10:57:32;6.00;57.40
20066;DHT22;10193;48.884;9.182;2023-03-01T11:00:15;6.10;57.40
20066;DHT22;10193;48.884;9.182;2023-03-01T11:02:47;6.10;57.10
20066;DHT22;10193;48.884;9.182;2023-03-01T11:05:19;6.20;57.50
20066;DHT22;10193;48.884;9.182;2023-03-01T11:07:48;6.30;57.50
20066;DHT22;10193;48.884;9.182;2023-03-01T11:10:17;6.40;57.60
20066;DHT22;10193;48.884;9.182;2023-03-01T11:12:44;6.40;57.50
20066;DHT22;10193;48.884;9.182;2023-03-01T11:15:21;6.50;57.60
20066;DHT22;10193;48.884;9.182;2023-03-01T11:17:49;6.60;56.70
20066;DHT22;10193;48.884;9.182;2023-03-01T11:20:20;6.70;57.20
20066;DHT22;10193;48.884;9.182;2023-03-01T11:22:54;6.70;57.20
20066;DHT22;10193;48.884;9.182;2023-03-01T11:25:24;6.80;57.10
20066;DHT22;10193;48.884;9.182;2023-03-01T11:27:53;6.90;57.00
20066;DHT22;10193;48.884;9.182;2023-03-01T11:30:24;7.00;57.10
20066;DHT22;10193;48.884;9.182;2023-03-01T11:33:03;7.00;56.70
20066;DHT22;10193;48.884;9.182;2023-03-01T11:35:32;7.10;56.60
20066;DHT22;10193;48.884;9.182;2023-03-01T11:38:14;7.20;56.80
20066;DHT22;10193;48.884;9.182;2023-03-01T11:40:46;7.20;56.80
20066;DHT22;10193;48.884;9.182;2023-03-01T11:43:19;7.30;56.80
20066;DHT22;10193;48.884;9.182;2023-03-01T11:46:20;7.30;56.70
20066;DHT22;10193;48.884;9.182;2023-03-01T11:49:00;7.40;56.30
20066;DHT22;10193;48.884;9.182;2023-03-01T11:51:41;7.50;56.60
20066;DHT22;10193;48.884;9.182;2023-03-01T11:54:27;7.50;56.40
20066;DHT22;10193;48.884;9.182;2023-03-01T11:56:57;7.60;56.20
20066;DHT22;10193;48.884;9.182;2023-03-01T12:02:40;7.60;55.90
20066;DHT22;10193;48.884;9.182;2023-03-01T12:05:24;7.70;55.90
20066;DHT22;10193;48.884;9.182;2023-03-01T12:07:57;7.70;56.30
20066;DHT22;10193;48.884;9.182;2023-03-01T12:10:32;7.70;56.00
20066;DHT22;10193;48.884;9.182;2023-03-01T12:13:17;7.80;56.10
20066;DHT22;10193;48.884;9.182;2023-03-01T12:15:55;7.80;55.70
20066;DHT22;10193;48.884;9.182;2023-03-01T12:18:42;7.90;55.90
20066;DHT22;10193;48.884;9.182;2023-03-01T12:21:21;7.90;55.90
20066;DHT22;10193;48.884;9.182;2023-03-01T12:24:28;7.90;55.70
20066;DHT22;10193;48.884;9.182;2023-03-01T12:27:09;8.00;55.10
20066;DHT22;10193;48.884;9.182;2023-03-01T12:29:45;8.00;55.70
20066;DHT22;10193;48.884;9.182;2023-03-01T12:32:28;8.10;55.80
20066;DHT22;10193;48.884;9.182;2023-03-01T12:35:16;8.10;55.50
20066;DHT22;10193;48.884;9.182;2023-03-01T12:37:54;8.20;55.30
20066;DHT22;10193;48.884;9.182;2023-03-01T12:40:32;8.20;55.60
20066;DHT22;10193;48.884;9.182;2023-03-01T12:43:15;8.30;55.70
20066;DHT22;10193;48.884;9.182;2023-03-01T12:46:07;8.30;55.40
20066;DHT22;10193;48.884;9.182;2023-03-01T12:48:42;8.40;55.40
20066;DHT22;10193;48.884;9.182;2023-03-01T12:51:15;8.40;55.50
20066;DHT22;10193;48.884;9.182;2023-03-01T12:53:46;8.50;55.50
20066;DHT22;10193;48.884;9.182;2023-03-01T12:56:16;8.50;55.30
20066;DHT22;10193;48.884;9.182;2023-03-01T12:58:54;8.60;55.30
20066;DHT22;10193;48.884;9.182;2023-03-01T13:01:31;8.60;55.10
20066;DHT22;10193;48.884;9.182;2023-03-01T13:04:10;8.70;54.90
20066;DHT22;10193;48.884;9.182;2023-03-01T13:06:44;8.70;54.70
20066;DHT22;10193;48.884;9.182;2023-03-01T13:09:19;8.80;54.50
20066;DHT22;10193;48.884;9.182;2023-03-01T13:11:48;8.80;54.70
20066;DHT22;10193;48.884;9.182;2023-03-01T13:14:36;8.90;54.70
20066;DHT22;10193;48.884;9.182;2023-03-01T13:17:03;8.90;54.10
20066;DHT22;10193;48.884;9.182;2023-03-01T13:19:30;8.90;54.80
20066;DHT22;10193;48.884;9.182;2023-03-01T13:21:58;9.00;54.90
20066;DHT22;10193;48.884;9.182;2023-03-01T13:24:27;9.00;54.80
20066;DHT22;10193;48.884;9.182;2023-03-01T13:27:25;9.10;54.60
20066;DHT22;10193;48.884;9.182;2023-03-01T13:29:57;9.10;53.60
20066;DHT22;10193;48.884;9.182;2023-03-01T13:32:29;9.20;54.40
20066;DHT22;10193;48.884;9.182;2023-03-01T13:34:59;9.20;54.10
20066;DHT22;10193;48.884;9.182;2023-03-01T13:37:31;9.20;54.20
20066;DHT22;10193;48.884;9.182;2023-03-01T13:40:01;9.20;54.20
20066;DHT22;10193;48.884;9.182;2023-03-01T13:42:40;9.30;54.20
20066;DHT22;10193;48.884;9.182;2023-03-01T13:45:18;9.30;53.80
20066;DHT22;10193;48.884;9.182;2023-03-01T13:47:46;9.30;53.70
20066;DHT22;10193;48.884;9.182;2023-03-01T13:50:20;9.30;54.00
20066;DHT22;10193;48.884;9.182;2023-03-01T13:52:50;9.30;53.60
20066;DHT22;10193;48.884;9.182;2023-03-01T13:55:21;9.30;53.80
20066;DHT22;10193;48.884;9.182;2023-03-01T13:57:51;9.40;53.90
20066;DHT22;10193;48.884;9.182;2023-03-01T14:00:35;9.40;53.90
20066;DHT22;10193;48.884;9.182;2023-03-01T14:03:05;9.40;54.30
20066;DHT22;10193;48.884;9.182;2023-03-01T14:05:35;9.40;54.00
20066;DHT22;10193;48.884;9.182;2023-03-01T14:08:02;9.40;53.50
20066;DHT22;10193;48.884;9.182;2023-03-01T14:10:35;9.40;53.70
20066;DHT22;10193;48.884;9.182;2023-03-01T14:13:14;9.40;53.70
20066;DHT22;10193;48.884;9.182;2023-03-01T14:15:50;9.40;53.20
20066;DHT22;10193;48.884;9.182;2023-03-01T14:18:28;9.40;53.20
20066;DHT22;10193;48.884;9.182;2023-03-01T14:20:56;9.40;53.50
20066;DHT22;10193;48.884;9.182;2023-03-01T14:23:24;9.50;53.60
20066;DHT22;10193;48.884;9.182;2023-03-01T14:25:54;9.50;53.60
20066;DHT22;10193;48.884;9.182;2023-03-01T14:28:24;9.50;53.50
20066;DHT22;10193;48.884;9.182;2023-03-01T14:30:55;9.50;53.50
20066;DHT22;10193;48.884;9.182;2023-03-01T14:33:24;9.50;53.40
20066;DHT22;10193;48.884;9.182;2023-03-01T14:35:57;9.40;53.10
20066;DHT22;10193;48.884;9.182;2023-03-01T14:38:29;9.40;53.30
20066;DHT22;10193;48.884;9.182;2023-03-01T14:40:58;9.40;53.00
20066;DHT22;10193;48.884;9.182;2023-03-01T14:43:27;9.50;53.20
20066;DHT22;10193;48.884;9.182;2023-03-01T14:45:57;9.50;53.40
20066;DHT22;10193;48.884;9.182;2023-03-01T14:48:23;9.50;53.20
20066;DHT22;10193;48.884;9.182;2023-03-01T14:50:51;9.50;53.40
20066;DHT22;10193;48.884;9.182;2023-03-01T14:53:21;9.50;53.30
20066;DHT22;10193;48.884;9.182;2023-03-01T14:55:50;9.50;53.20
20066;DHT22;10193;48.884;9.182;2023-03-01T14:58:20;9.50;53.10
20066;DHT22;10193;48.884;9.182;2023-03-01T15:00:50;9.50;53.20
20066;DHT22;10193;48.884;9.182;2023-03-01T15:03:25;9.50;53.10
20066;DHT22;10193;48.884;9.182;2023-03-01T15:05:54;9.50;53.10
20066;DHT22;10193;48.884;9.182;2023-03-01T15:08:23;9.50;53.00
20066;DHT22;10193;48.884;9.182;2023-03-01T15:11:03;9.50;52.80
20066;DHT22;10193;48.884;9.182;2023-03-01T15:13:31;9.50;53.00
20066;DHT22;10193;48.884;9.182;2023-03-01T15:16:09;9.50;52.90
20066;DHT22;10193;48.884;9.182;2023-03-01T15:18:43;9.50;52.50
20066;DHT22;10193;48.884;9.182;2023-03-01T15:21:17;9.50;52.40
20066;DHT22;10193;48.884;9.182;2023-03-01T15:23:48;9.50;53.00
20066;DHT22;10193;48.884;9.182;2023-03-01T15:26:24;9.50;52.80
20066;DHT22;10193;48.884;9.182;2023-03-01T15:28:54;9.50;52.60
20066;DHT22;10193;48.884;9.182;2023-03-01T15:31:25;9.50;52.70
20066;DHT22;10193;48.884;9.182;2023-03-01T15:34:08;9.60;53.00
20066;DHT22;10193;48.884;9.182;2023-03-01T15:36:41;9.50;52.40
20066;DHT22;10193;48.884;9.182;2023-03-01T15:39:26;9.50;52.50
20066;DHT22;10193;48.884;9.182;2023-03-01T15:41:53;9.50;52.30
20066;DHT22;10193;48.884;9.182;2023-03-01T15:44:26;9.50;52.60
20066;DHT22;10193;48.884;9.182;2023-03-01T15:46:53;9.50;52.50
20066;DHT22;10193;48.884;9.182;2023-03-01T15:49:30;9.50;52.40
20066;DHT22;10193;48.884;9.182;2023-03-01T15:51:59;9.50;52.30
20066;DHT22;10193;48.884;9.182;2023-03-01T15:54:27;9.50;52.60
20066;DHT22;10193;48.884;9.182;2023-03-01T15:56:54;9.50;52.60
20066;DHT22;10193;48.884;9.182;2023-03-01T15:59:21;9.50;52.60
20066;DHT22;10193;48.884;9.182;2023-03-01T16:01:48;9.50;52.60
20066;DHT22;10193;48.884;9.182;2023-03-01T16:04:17;9.50;52.40
20066;DHT22;10193;48.884;9.182;2023-03-01T16:06:50;9.50;52.50
20066;DHT22;10193;48.884;9.182;2023-03-01T16:09:21;9.40;52.20